PROFILE

 METAR AND TAF INFORMATION
ADDS - METARS form results

(0555 UTC 19 July 2019)
http://aviationweather.gov/metar/data/
 
PATA 190552Z AUTO VRB05KT 10SM BKN044 18/12 A2987 RMK AO2 SLP115 T01830117 10228 20178 53003 TSNO
PATA 190539Z 1906/2006 26006KT P6SM BKN035 

 AIRPORT MAP

 RUNWAY INFORMATION
Runway 07 Runway length 4400 ft Runway width 150 ft
Runway elevation 223 ft Runway displaced threshold 0 ft Runway heading 89
Runway 25 Runway length 4400 ft Runway width 150 ft
Runway elevation 236 ft Runway displaced threshold 0 ft Runway heading 269

 AIRPORT FREQUENCIES

 AIRPORT NEAR NAVIGATION AIDS
Type NDB Name Bear Creek Frequency 212 KHZ
Type VOR-DME Name Tanana Frequency 116600 KHZ